Hornitos, CA (95325)

1:21 AM PDT on October 22, 2014 (GMT -0700)
Boat Club | Change Station
CLOSE
Current Station
Personal Weather Station
Location: Snelling, CA
Elevation: 950 ft
Nearby Weather Stations

Elev 950 ft 37.62 °N, 120.28 °W | Updated 3 seconds ago

Clear
Clear
54.5 °F
Feels Like 54.5 °F
N
5.0
Wind Variable Wind from NW
Gusts 7.0 mph

Today
High -- | Low -- °F
--% Chance of Precip.
Yesterday
High -- | Low -- °F
Precip. -- in
7:15 AM 6:14 PM
Waning Crescent, 2% visible
Pressure 30.02 in
Visibility 10.0 miles
Clouds Clear
Dew Point 39 °F
Humidity 55%
Rainfall 0.00 in
Snow Depth Not available.
UV 0 out of 12
Pollen 3.20 out of 12
Air Quality Not available.
Flu Activity Sporadic
METAR KMER 220815Z AUTO 05003KT 10SM CLR 11/11 A3002 RMK AO1

More Conditions Fewer Conditions

Pressure 30.02 in
Visibility 10.0 miles
Clouds Clear
Dew Point 39 °F
Humidity 55%
Rainfall 0.00 in
Snow Depth Not available.
UV 0 out of 12
Pollen 3.20 out of 12
Air Quality Not available.
Flu Activity Sporadic
METAR KMER 220815Z AUTO 05003KT 10SM CLR 11/11 A3002 RMK AO1

More Conditions Fewer Conditions

10-Day Weather Forecast

Almanac

Astronomy

Oct. 22, 2014 Rise Set
Actual Time 7:15 AM PDT 6:14 PM PDT
Civil Twilight 6:49 AM PDT 6:40 PM PDT
Nautical Twilight 6:18 AM PDT 7:11 PM PDT
Astronomical Twilight 5:48 AM PDT 7:41 PM PDT
Moon 6:03 AM PDT 5:42 PM PDT
Length of Visible Light 11h 51m
Length of Day
10h 58m
Tomorrow will be 2m 15s shorter.
Waning Crescent, 2% of the Moon is Illuminated
Today
Waning Crescent
Oct 23
New
Oct 30
First Quarter
Nov 6
Full
Nov 14
Last Quarter

Today's Extremes

State Highs State Lows

Community

WunderPhotos

Upload Photos

1,763,889 photos uploaded!

Nearby

Snow Depth

Station Depth Elevation
Leavitt Lake 1 in 9400 ft
Sonora Pass 0 in 8800 ft
Virginia Lakes Ridge 0 in 9200 ft
Leavitt Meadows 1 in 7200 ft
Summit Meadow 2 in 9122 ft

Earthquake Activity

City Distance Mag. Time & Date
Mammoth Lakes, California 78 miles 3.0 11:10 PM PDT
2014-10-20
Lone Pine, California 136 miles 2.6 5:26 AM PDT
2014-10-19
Dixon Lane-Meadow Creek, California 97 miles 2.6 5:32 PM PDT
2014-10-18
Minimum magnitude displayed is 2.5.

Coastal Water Temperatures

Place Temperature
No Stations Reporting

Nearby Weather Stations